sensor_id;sensor_type;location;lat;lon;timestamp;temperature;humidity
36352;DHT22;22382;44.768;17.206;2023-05-07T00:01:13;12.80;99.90
36352;DHT22;22382;44.768;17.206;2023-05-07T00:03:40;12.70;99.90
36352;DHT22;22382;44.768;17.206;2023-05-07T00:06:08;12.70;99.90
36352;DHT22;22382;44.768;17.206;2023-05-07T00:08:37;12.70;99.90
36352;DHT22;22382;44.768;17.206;2023-05-07T00:11:04;12.70;99.90
36352;DHT22;22382;44.768;17.206;2023-05-07T00:13:31;12.60;99.90
36352;DHT22;22382;44.768;17.206;2023-05-07T00:16:03;12.60;99.90
36352;DHT22;22382;44.768;17.206;2023-05-07T00:18:30;12.60;99.90
36352;DHT22;22382;44.768;17.206;2023-05-07T00:20:57;12.60;99.90
36352;DHT22;22382;44.768;17.206;2023-05-07T00:23:24;12.60;99.90
36352;DHT22;22382;44.768;17.206;2023-05-07T00:25:51;12.60;99.90
36352;DHT22;22382;44.768;17.206;2023-05-07T00:28:19;12.60;99.90
36352;DHT22;22382;44.768;17.206;2023-05-07T00:30:46;12.60;99.90
36352;DHT22;22382;44.768;17.206;2023-05-07T00:33:13;12.50;99.90
36352;DHT22;22382;44.768;17.206;2023-05-07T00:35:43;12.50;99.90
36352;DHT22;22382;44.768;17.206;2023-05-07T00:38:10;12.50;99.90
36352;DHT22;22382;44.768;17.206;2023-05-07T00:40:37;12.50;99.90
36352;DHT22;22382;44.768;17.206;2023-05-07T00:43:04;12.50;99.90
36352;DHT22;22382;44.768;17.206;2023-05-07T00:45:33;12.50;99.90
36352;DHT22;22382;44.768;17.206;2023-05-07T00:48:01;12.40;99.90
36352;DHT22;22382;44.768;17.206;2023-05-07T00:50:29;12.40;99.90
36352;DHT22;22382;44.768;17.206;2023-05-07T00:52:57;12.40;99.90
36352;DHT22;22382;44.768;17.206;2023-05-07T00:55:24;12.30;99.90
36352;DHT22;22382;44.768;17.206;2023-05-07T00:57:52;12.30;99.90
36352;DHT22;22382;44.768;17.206;2023-05-07T01:00:19;12.30;99.90
36352;DHT22;22382;44.768;17.206;2023-05-07T01:02:46;12.20;99.90
36352;DHT22;22382;44.768;17.206;2023-05-07T01:05:16;12.20;99.90
36352;DHT22;22382;44.768;17.206;2023-05-07T01:07:45;12.20;99.90
36352;DHT22;22382;44.768;17.206;2023-05-07T01:10:13;12.20;99.90
36352;DHT22;22382;44.768;17.206;2023-05-07T01:12:40;12.10;99.90
36352;DHT22;22382;44.768;17.206;2023-05-07T01:15:09;12.20;99.90
36352;DHT22;22382;44.768;17.206;2023-05-07T01:17:38;12.20;99.90
36352;DHT22;22382;44.768;17.206;2023-05-07T01:20:07;12.20;99.90
36352;DHT22;22382;44.768;17.206;2023-05-07T01:22:39;12.10;99.90
36352;DHT22;22382;44.768;17.206;2023-05-07T01:25:07;12.00;99.90
36352;DHT22;22382;44.768;17.206;2023-05-07T01:27:35;12.00;99.90
36352;DHT22;22382;44.768;17.206;2023-05-07T01:30:04;12.00;99.90
36352;DHT22;22382;44.768;17.206;2023-05-07T01:32:37;12.00;99.90
36352;DHT22;22382;44.768;17.206;2023-05-07T01:35:07;12.00;99.90
36352;DHT22;22382;44.768;17.206;2023-05-07T01:37:35;12.00;99.90
36352;DHT22;22382;44.768;17.206;2023-05-07T01:40:03;12.00;99.90
36352;DHT22;22382;44.768;17.206;2023-05-07T01:42:31;11.90;99.90
36352;DHT22;22382;44.768;17.206;2023-05-07T01:44:58;11.90;99.90
36352;DHT22;22382;44.768;17.206;2023-05-07T01:47:26;11.90;99.90
36352;DHT22;22382;44.768;17.206;2023-05-07T01:49:54;11.90;99.90
36352;DHT22;22382;44.768;17.206;2023-05-07T01:52:22;11.90;99.90
36352;DHT22;22382;44.768;17.206;2023-05-07T01:54:49;11.90;99.90
36352;DHT22;22382;44.768;17.206;2023-05-07T01:57:16;12.00;99.90
36352;DHT22;22382;44.768;17.206;2023-05-07T01:59:43;11.90;99.90
36352;DHT22;22382;44.768;17.206;2023-05-07T02:02:10;12.00;99.90
36352;DHT22;22382;44.768;17.206;2023-05-07T02:04:37;11.90;99.90
36352;DHT22;22382;44.768;17.206;2023-05-07T02:07:05;12.00;99.90
36352;DHT22;22382;44.768;17.206;2023-05-07T02:09:32;11.90;99.90
36352;DHT22;22382;44.768;17.206;2023-05-07T02:11:59;11.90;99.90
36352;DHT22;22382;44.768;17.206;2023-05-07T02:14:26;11.80;99.90
36352;DHT22;22382;44.768;17.206;2023-05-07T02:16:53;11.80;99.90
36352;DHT22;22382;44.768;17.206;2023-05-07T02:19:21;11.80;99.90
36352;DHT22;22382;44.768;17.206;2023-05-07T02:21:48;11.70;99.90
36352;DHT22;22382;44.768;17.206;2023-05-07T02:24:15;11.80;99.90
36352;DHT22;22382;44.768;17.206;2023-05-07T02:26:43;11.80;99.90
36352;DHT22;22382;44.768;17.206;2023-05-07T02:29:10;11.80;99.90
36352;DHT22;22382;44.768;17.206;2023-05-07T02:31:37;11.80;99.90
36352;DHT22;22382;44.768;17.206;2023-05-07T02:34:04;11.80;99.90
36352;DHT22;22382;44.768;17.206;2023-05-07T02:36:31;11.80;99.90
36352;DHT22;22382;44.768;17.206;2023-05-07T02:38:59;11.80;99.90
36352;DHT22;22382;44.768;17.206;2023-05-07T02:41:26;11.80;99.90
36352;DHT22;22382;44.768;17.206;2023-05-07T02:43:54;11.80;99.90
36352;DHT22;22382;44.768;17.206;2023-05-07T02:46:22;11.70;99.90
36352;DHT22;22382;44.768;17.206;2023-05-07T02:48:49;11.70;99.90
36352;DHT22;22382;44.768;17.206;2023-05-07T02:51:20;11.70;99.90
36352;DHT22;22382;44.768;17.206;2023-05-07T02:53:51;11.70;99.90
36352;DHT22;22382;44.768;17.206;2023-05-07T02:56:18;11.60;99.90
36352;DHT22;22382;44.768;17.206;2023-05-07T02:58:45;11.60;99.90
36352;DHT22;22382;44.768;17.206;2023-05-07T03:01:12;11.60;99.90
36352;DHT22;22382;44.768;17.206;2023-05-07T03:03:40;11.50;99.90
36352;DHT22;22382;44.768;17.206;2023-05-07T03:06:08;11.50;99.90
36352;DHT22;22382;44.768;17.206;2023-05-07T03:08:35;11.50;99.90
36352;DHT22;22382;44.768;17.206;2023-05-07T03:11:03;11.50;99.90
36352;DHT22;22382;44.768;17.206;2023-05-07T03:13:30;11.50;99.90
36352;DHT22;22382;44.768;17.206;2023-05-07T03:15:57;11.50;99.90
36352;DHT22;22382;44.768;17.206;2023-05-07T03:18:25;11.40;99.90
36352;DHT22;22382;44.768;17.206;2023-05-07T03:20:52;11.40;99.90
36352;DHT22;22382;44.768;17.206;2023-05-07T03:23:19;11.40;99.90
36352;DHT22;22382;44.768;17.206;2023-05-07T03:25:50;11.40;99.90
36352;DHT22;22382;44.768;17.206;2023-05-07T03:28:17;11.50;99.90
36352;DHT22;22382;44.768;17.206;2023-05-07T03:30:44;11.50;99.90
36352;DHT22;22382;44.768;17.206;2023-05-07T03:33:11;11.50;99.90
36352;DHT22;22382;44.768;17.206;2023-05-07T03:35:38;11.50;99.90
36352;DHT22;22382;44.768;17.206;2023-05-07T03:38:07;11.50;99.90
36352;DHT22;22382;44.768;17.206;2023-05-07T03:40:34;11.50;99.90
36352;DHT22;22382;44.768;17.206;2023-05-07T03:43:01;11.50;99.90
36352;DHT22;22382;44.768;17.206;2023-05-07T03:45:29;11.50;99.90
36352;DHT22;22382;44.768;17.206;2023-05-07T03:47:56;11.50;99.90
36352;DHT22;22382;44.768;17.206;2023-05-07T03:50:23;11.50;99.90
36352;DHT22;22382;44.768;17.206;2023-05-07T03:52:50;11.50;99.90
36352;DHT22;22382;44.768;17.206;2023-05-07T03:55:17;11.50;99.90
36352;DHT22;22382;44.768;17.206;2023-05-07T03:57:45;11.60;99.90
36352;DHT22;22382;44.768;17.206;2023-05-07T04:00:12;11.60;99.90
36352;DHT22;22382;44.768;17.206;2023-05-07T04:02:40;11.70;99.90
36352;DHT22;22382;44.768;17.206;2023-05-07T04:05:08;11.70;99.90
36352;DHT22;22382;44.768;17.206;2023-05-07T04:07:35;11.90;99.90
36352;DHT22;22382;44.768;17.206;2023-05-07T04:10:02;12.00;99.90
36352;DHT22;22382;44.768;17.206;2023-05-07T04:12:29;12.10;99.90
36352;DHT22;22382;44.768;17.206;2023-05-07T04:14:56;12.10;99.90
36352;DHT22;22382;44.768;17.206;2023-05-07T04:17:24;12.10;99.90
36352;DHT22;22382;44.768;17.206;2023-05-07T04:19:51;12.10;99.90
36352;DHT22;22382;44.768;17.206;2023-05-07T04:22:18;12.10;99.90
36352;DHT22;22382;44.768;17.206;2023-05-07T04:24:45;12.10;99.90
36352;DHT22;22382;44.768;17.206;2023-05-07T04:27:12;12.20;99.90
36352;DHT22;22382;44.768;17.206;2023-05-07T04:29:39;12.30;99.90
36352;DHT22;22382;44.768;17.206;2023-05-07T04:32:09;12.50;99.90
36352;DHT22;22382;44.768;17.206;2023-05-07T04:34:37;12.70;99.90
36352;DHT22;22382;44.768;17.206;2023-05-07T04:37:04;13.10;99.90
36352;DHT22;22382;44.768;17.206;2023-05-07T04:39:32;13.40;99.90
36352;DHT22;22382;44.768;17.206;2023-05-07T04:42:02;13.50;99.90
36352;DHT22;22382;44.768;17.206;2023-05-07T04:44:29;13.80;99.90
36352;DHT22;22382;44.768;17.206;2023-05-07T04:46:58;14.10;99.90
36352;DHT22;22382;44.768;17.206;2023-05-07T04:49:25;14.20;99.90
36352;DHT22;22382;44.768;17.206;2023-05-07T04:51:52;14.40;99.90
36352;DHT22;22382;44.768;17.206;2023-05-07T04:54:19;14.70;99.90
36352;DHT22;22382;44.768;17.206;2023-05-07T04:56:46;15.00;99.90
36352;DHT22;22382;44.768;17.206;2023-05-07T04:59:13;15.30;99.90
36352;DHT22;22382;44.768;17.206;2023-05-07T05:01:41;15.60;99.90
36352;DHT22;22382;44.768;17.206;2023-05-07T05:04:08;15.80;99.90
36352;DHT22;22382;44.768;17.206;2023-05-07T05:06:36;16.00;99.90
36352;DHT22;22382;44.768;17.206;2023-05-07T05:09:03;16.10;99.70
36352;DHT22;22382;44.768;17.206;2023-05-07T05:11:31;16.30;97.00
36352;DHT22;22382;44.768;17.206;2023-05-07T05:13:59;16.40;96.10
36352;DHT22;22382;44.768;17.206;2023-05-07T05:16:27;16.50;95.00
36352;DHT22;22382;44.768;17.206;2023-05-07T05:18:54;16.70;94.70
36352;DHT22;22382;44.768;17.206;2023-05-07T05:21:21;16.70;93.80
36352;DHT22;22382;44.768;17.206;2023-05-07T05:23:49;17.00;92.20
36352;DHT22;22382;44.768;17.206;2023-05-07T05:26:17;17.10;91.20
36352;DHT22;22382;44.768;17.206;2023-05-07T05:28:44;17.20;90.90
36352;DHT22;22382;44.768;17.206;2023-05-07T05:31:11;17.30;91.00
36352;DHT22;22382;44.768;17.206;2023-05-07T05:33:39;17.40;90.40
36352;DHT22;22382;44.768;17.206;2023-05-07T05:36:09;17.50;90.30
36352;DHT22;22382;44.768;17.206;2023-05-07T05:38:37;17.50;88.90
36352;DHT22;22382;44.768;17.206;2023-05-07T05:41:04;17.70;87.30
36352;DHT22;22382;44.768;17.206;2023-05-07T05:43:31;17.90;84.30
36352;DHT22;22382;44.768;17.206;2023-05-07T05:45:58;18.00;82.50
36352;DHT22;22382;44.768;17.206;2023-05-07T05:48:26;18.10;83.10
36352;DHT22;22382;44.768;17.206;2023-05-07T05:50:53;18.00;84.60
36352;DHT22;22382;44.768;17.206;2023-05-07T05:53:20;18.30;83.90
36352;DHT22;22382;44.768;17.206;2023-05-07T05:55:48;18.50;82.60
36352;DHT22;22382;44.768;17.206;2023-05-07T05:58:15;18.20;86.30
36352;DHT22;22382;44.768;17.206;2023-05-07T06:00:45;18.70;83.70
36352;DHT22;22382;44.768;17.206;2023-05-07T06:03:12;19.00;81.40
36352;DHT22;22382;44.768;17.206;2023-05-07T06:05:40;19.40;78.10
36352;DHT22;22382;44.768;17.206;2023-05-07T06:08:08;19.50;78.00
36352;DHT22;22382;44.768;17.206;2023-05-07T06:10:36;19.80;77.60
36352;DHT22;22382;44.768;17.206;2023-05-07T06:13:04;19.40;78.90
36352;DHT22;22382;44.768;17.206;2023-05-07T06:15:32;19.70;77.10
36352;DHT22;22382;44.768;17.206;2023-05-07T06:17:59;19.70;76.50
36352;DHT22;22382;44.768;17.206;2023-05-07T06:20:26;19.50;77.00
36352;DHT22;22382;44.768;17.206;2023-05-07T06:22:53;19.70;77.10
36352;DHT22;22382;44.768;17.206;2023-05-07T06:25:21;19.90;76.10
36352;DHT22;22382;44.768;17.206;2023-05-07T06:27:48;20.10;75.80
36352;DHT22;22382;44.768;17.206;2023-05-07T06:30:15;19.80;76.30
36352;DHT22;22382;44.768;17.206;2023-05-07T06:32:42;20.00;75.00
36352;DHT22;22382;44.768;17.206;2023-05-07T06:35:09;19.90;74.60
36352;DHT22;22382;44.768;17.206;2023-05-07T06:37:37;20.00;74.50
36352;DHT22;22382;44.768;17.206;2023-05-07T06:40:06;20.10;73.40
36352;DHT22;22382;44.768;17.206;2023-05-07T06:42:36;20.00;73.50
36352;DHT22;22382;44.768;17.206;2023-05-07T06:45:04;20.30;72.70
36352;DHT22;22382;44.768;17.206;2023-05-07T06:47:32;20.30;73.20
36352;DHT22;22382;44.768;17.206;2023-05-07T06:50:02;20.00;72.70
36352;DHT22;22382;44.768;17.206;2023-05-07T06:52:29;20.30;73.20
36352;DHT22;22382;44.768;17.206;2023-05-07T06:54:56;20.40;71.60
36352;DHT22;22382;44.768;17.206;2023-05-07T06:57:24;20.20;71.80
36352;DHT22;22382;44.768;17.206;2023-05-07T06:59:52;20.40;71.30
36352;DHT22;22382;44.768;17.206;2023-05-07T07:02:19;19.80;72.40
36352;DHT22;22382;44.768;17.206;2023-05-07T07:04:46;19.90;73.50
36352;DHT22;22382;44.768;17.206;2023-05-07T07:07:14;20.10;73.30
36352;DHT22;22382;44.768;17.206;2023-05-07T07:09:41;20.40;72.20
36352;DHT22;22382;44.768;17.206;2023-05-07T07:12:08;20.80;69.60
36352;DHT22;22382;44.768;17.206;2023-05-07T07:14:35;21.00;68.10
36352;DHT22;22382;44.768;17.206;2023-05-07T07:17:02;20.90;68.00
36352;DHT22;22382;44.768;17.206;2023-05-07T07:19:29;20.90;67.60
36352;DHT22;22382;44.768;17.206;2023-05-07T07:21:57;21.00;68.90
36352;DHT22;22382;44.768;17.206;2023-05-07T07:24:24;21.50;68.00
36352;DHT22;22382;44.768;17.206;2023-05-07T07:26:51;21.20;68.30
36352;DHT22;22382;44.768;17.206;2023-05-07T07:29:19;20.90;69.20
36352;DHT22;22382;44.768;17.206;2023-05-07T07:31:46;21.20;70.10
36352;DHT22;22382;44.768;17.206;2023-05-07T07:34:13;21.40;69.40
36352;DHT22;22382;44.768;17.206;2023-05-07T07:36:40;21.30;69.50
36352;DHT22;22382;44.768;17.206;2023-05-07T07:39:12;21.10;70.00
36352;DHT22;22382;44.768;17.206;2023-05-07T07:41:40;21.50;69.30
36352;DHT22;22382;44.768;17.206;2023-05-07T07:44:07;22.00;69.50
36352;DHT22;22382;44.768;17.206;2023-05-07T07:46:35;22.20;69.90
36352;DHT22;22382;44.768;17.206;2023-05-07T07:49:02;22.60;67.90
36352;DHT22;22382;44.768;17.206;2023-05-07T07:51:30;22.40;69.70
36352;DHT22;22382;44.768;17.206;2023-05-07T07:53:57;22.50;67.30
36352;DHT22;22382;44.768;17.206;2023-05-07T07:56:25;22.40;67.60
36352;DHT22;22382;44.768;17.206;2023-05-07T07:58:52;22.70;68.20
36352;DHT22;22382;44.768;17.206;2023-05-07T08:01:20;22.50;68.00
36352;DHT22;22382;44.768;17.206;2023-05-07T08:03:48;22.70;68.30
36352;DHT22;22382;44.768;17.206;2023-05-07T08:06:16;23.10;67.60
36352;DHT22;22382;44.768;17.206;2023-05-07T08:08:44;23.20;66.00
36352;DHT22;22382;44.768;17.206;2023-05-07T08:11:11;23.60;64.50
36352;DHT22;22382;44.768;17.206;2023-05-07T08:13:38;23.70;65.60
36352;DHT22;22382;44.768;17.206;2023-05-07T08:16:05;23.60;64.40
36352;DHT22;22382;44.768;17.206;2023-05-07T08:18:33;23.70;66.40
36352;DHT22;22382;44.768;17.206;2023-05-07T08:21:01;23.80;64.00
36352;DHT22;22382;44.768;17.206;2023-05-07T08:23:28;23.70;63.80
36352;DHT22;22382;44.768;17.206;2023-05-07T08:25:55;23.90;63.20
36352;DHT22;22382;44.768;17.206;2023-05-07T08:28:22;23.80;63.90
36352;DHT22;22382;44.768;17.206;2023-05-07T08:30:51;23.70;63.10
36352;DHT22;22382;44.768;17.206;2023-05-07T08:33:19;23.90;62.90
36352;DHT22;22382;44.768;17.206;2023-05-07T08:35:46;24.30;60.40
36352;DHT22;22382;44.768;17.206;2023-05-07T08:38:14;24.30;61.10
36352;DHT22;22382;44.768;17.206;2023-05-07T08:40:41;24.00;60.90
36352;DHT22;22382;44.768;17.206;2023-05-07T08:43:08;23.70;59.60
36352;DHT22;22382;44.768;17.206;2023-05-07T08:45:39;23.30;61.60
36352;DHT22;22382;44.768;17.206;2023-05-07T08:48:15;23.60;61.00
36352;DHT22;22382;44.768;17.206;2023-05-07T08:50:50;23.90;58.50
36352;DHT22;22382;44.768;17.206;2023-05-07T08:53:18;24.10;58.50
36352;DHT22;22382;44.768;17.206;2023-05-07T08:55:48;24.10;58.80
36352;DHT22;22382;44.768;17.206;2023-05-07T08:58:16;23.50;58.30
36352;DHT22;22382;44.768;17.206;2023-05-07T09:00:48;23.60;58.50
36352;DHT22;22382;44.768;17.206;2023-05-07T09:03:17;24.00;57.30
36352;DHT22;22382;44.768;17.206;2023-05-07T09:05:44;24.20;56.80
36352;DHT22;22382;44.768;17.206;2023-05-07T09:08:15;24.40;55.90
36352;DHT22;22382;44.768;17.206;2023-05-07T09:10:43;24.00;57.50
36352;DHT22;22382;44.768;17.206;2023-05-07T09:13:12;23.90;58.50
36352;DHT22;22382;44.768;17.206;2023-05-07T09:15:41;23.80;59.10
36352;DHT22;22382;44.768;17.206;2023-05-07T09:18:08;24.00;59.00
36352;DHT22;22382;44.768;17.206;2023-05-07T09:20:40;24.20;60.00
36352;DHT22;22382;44.768;17.206;2023-05-07T09:23:08;24.40;60.50
36352;DHT22;22382;44.768;17.206;2023-05-07T09:25:38;24.30;59.60
36352;DHT22;22382;44.768;17.206;2023-05-07T09:28:06;24.30;58.70
36352;DHT22;22382;44.768;17.206;2023-05-07T09:30:34;24.40;59.90
36352;DHT22;22382;44.768;17.206;2023-05-07T09:33:03;24.50;59.10
36352;DHT22;22382;44.768;17.206;2023-05-07T09:35:34;24.50;59.00
36352;DHT22;22382;44.768;17.206;2023-05-07T09:38:02;24.50;60.10
36352;DHT22;22382;44.768;17.206;2023-05-07T09:40:31;24.30;59.60
36352;DHT22;22382;44.768;17.206;2023-05-07T09:43:10;24.30;58.80
36352;DHT22;22382;44.768;17.206;2023-05-07T09:45:39;24.20;61.30
36352;DHT22;22382;44.768;17.206;2023-05-07T09:48:09;24.40;59.00
36352;DHT22;22382;44.768;17.206;2023-05-07T09:50:49;24.50;56.80
36352;DHT22;22382;44.768;17.206;2023-05-07T09:53:20;24.30;57.90
36352;DHT22;22382;44.768;17.206;2023-05-07T09:55:54;24.40;58.80
36352;DHT22;22382;44.768;17.206;2023-05-07T09:58:23;24.20;59.80
36352;DHT22;22382;44.768;17.206;2023-05-07T10:00:52;24.30;59.30
36352;DHT22;22382;44.768;17.206;2023-05-07T10:03:21;24.50;59.40
36352;DHT22;22382;44.768;17.206;2023-05-07T10:05:50;24.40;60.90
36352;DHT22;22382;44.768;17.206;2023-05-07T10:08:19;24.30;59.00
36352;DHT22;22382;44.768;17.206;2023-05-07T10:10:47;24.70;58.70
36352;DHT22;22382;44.768;17.206;2023-05-07T10:13:14;24.70;58.20
36352;DHT22;22382;44.768;17.206;2023-05-07T10:15:45;24.90;60.20
36352;DHT22;22382;44.768;17.206;2023-05-07T10:18:21;25.00;58.10
36352;DHT22;22382;44.768;17.206;2023-05-07T10:21:19;25.00;57.20
36352;DHT22;22382;44.768;17.206;2023-05-07T10:23:52;25.10;57.50
36352;DHT22;22382;44.768;17.206;2023-05-07T10:26:22;25.10;59.60
36352;DHT22;22382;44.768;17.206;2023-05-07T10:29:02;24.90;59.20
36352;DHT22;22382;44.768;17.206;2023-05-07T10:34:28;25.20;57.10
36352;DHT22;22382;44.768;17.206;2023-05-07T10:36:57;25.50;58.30
36352;DHT22;22382;44.768;17.206;2023-05-07T10:39:26;25.60;59.50
36352;DHT22;22382;44.768;17.206;2023-05-07T10:41:54;25.90;59.70
36352;DHT22;22382;44.768;17.206;2023-05-07T10:44:27;26.30;57.40
36352;DHT22;22382;44.768;17.206;2023-05-07T10:52:33;25.60;55.10
36352;DHT22;22382;44.768;17.206;2023-05-07T10:55:26;25.20;56.50
36352;DHT22;22382;44.768;17.206;2023-05-07T10:57:53;25.00;56.70
36352;DHT22;22382;44.768;17.206;2023-05-07T11:03:05;25.40;58.40
36352;DHT22;22382;44.768;17.206;2023-05-07T11:05:34;25.70;56.70
36352;DHT22;22382;44.768;17.206;2023-05-07T11:08:05;25.70;55.30
36352;DHT22;22382;44.768;17.206;2023-05-07T11:10:54;25.60;57.20
36352;DHT22;22382;44.768;17.206;2023-05-07T11:16:23;25.50;56.30
36352;DHT22;22382;44.768;17.206;2023-05-07T11:18:53;25.70;56.80
36352;DHT22;22382;44.768;17.206;2023-05-07T11:21:37;25.70;56.70
36352;DHT22;22382;44.768;17.206;2023-05-07T11:24:06;25.60;55.10
36352;DHT22;22382;44.768;17.206;2023-05-07T11:26:46;25.70;56.80
36352;DHT22;22382;44.768;17.206;2023-05-07T11:29:18;25.60;55.70
36352;DHT22;22382;44.768;17.206;2023-05-07T11:31:50;25.60;56.90
36352;DHT22;22382;44.768;17.206;2023-05-07T11:34:23;25.60;55.70
36352;DHT22;22382;44.768;17.206;2023-05-07T11:36:51;25.80;55.70
36352;DHT22;22382;44.768;17.206;2023-05-07T11:39:45;26.00;55.90
36352;DHT22;22382;44.768;17.206;2023-05-07T11:42:29;26.00;56.20
36352;DHT22;22382;44.768;17.206;2023-05-07T11:44:56;26.00;53.50
36352;DHT22;22382;44.768;17.206;2023-05-07T11:47:24;25.90;53.60
36352;DHT22;22382;44.768;17.206;2023-05-07T11:49:53;25.90;54.10
36352;DHT22;22382;44.768;17.206;2023-05-07T11:52:23;25.90;55.80
36352;DHT22;22382;44.768;17.206;2023-05-07T11:54:51;26.00;55.50
36352;DHT22;22382;44.768;17.206;2023-05-07T11:57:19;26.10;54.80
36352;DHT22;22382;44.768;17.206;2023-05-07T11:59:47;26.10;54.90
36352;DHT22;22382;44.768;17.206;2023-05-07T12:02:15;26.10;55.00
36352;DHT22;22382;44.768;17.206;2023-05-07T12:04:42;26.30;54.10
36352;DHT22;22382;44.768;17.206;2023-05-07T12:07:17;26.70;52.90
36352;DHT22;22382;44.768;17.206;2023-05-07T12:09:46;26.50;53.80
36352;DHT22;22382;44.768;17.206;2023-05-07T12:12:14;26.40;53.10
36352;DHT22;22382;44.768;17.206;2023-05-07T12:14:43;26.40;52.20
36352;DHT22;22382;44.768;17.206;2023-05-07T12:17:12;26.60;51.90
36352;DHT22;22382;44.768;17.206;2023-05-07T12:19:41;26.60;51.50
36352;DHT22;22382;44.768;17.206;2023-05-07T12:22:09;26.80;52.80
36352;DHT22;22382;44.768;17.206;2023-05-07T12:24:56;26.80;52.10
36352;DHT22;22382;44.768;17.206;2023-05-07T12:27:24;26.70;53.20
36352;DHT22;22382;44.768;17.206;2023-05-07T12:29:51;26.40;51.70
36352;DHT22;22382;44.768;17.206;2023-05-07T12:32:22;26.40;50.00
36352;DHT22;22382;44.768;17.206;2023-05-07T12:34:52;26.50;51.80
36352;DHT22;22382;44.768;17.206;2023-05-07T12:37:25;26.90;50.70
36352;DHT22;22382;44.768;17.206;2023-05-07T12:40:09;27.10;49.70
36352;DHT22;22382;44.768;17.206;2023-05-07T12:42:38;26.90;50.20
36352;DHT22;22382;44.768;17.206;2023-05-07T12:45:15;26.70;49.10
36352;DHT22;22382;44.768;17.206;2023-05-07T12:47:44;26.60;49.40
36352;DHT22;22382;44.768;17.206;2023-05-07T12:50:13;26.90;50.00
36352;DHT22;22382;44.768;17.206;2023-05-07T12:52:42;27.20;49.90
36352;DHT22;22382;44.768;17.206;2023-05-07T12:55:13;26.90;49.20
36352;DHT22;22382;44.768;17.206;2023-05-07T12:57:48;26.70;49.20
36352;DHT22;22382;44.768;17.206;2023-05-07T13:00:52;26.90;48.70
36352;DHT22;22382;44.768;17.206;2023-05-07T13:03:33;27.10;49.20
36352;DHT22;22382;44.768;17.206;2023-05-07T13:06:05;27.30;49.20
36352;DHT22;22382;44.768;17.206;2023-05-07T13:08:37;27.20;49.10
36352;DHT22;22382;44.768;17.206;2023-05-07T13:11:07;27.00;48.80
36352;DHT22;22382;44.768;17.206;2023-05-07T13:13:35;27.20;48.50
36352;DHT22;22382;44.768;17.206;2023-05-07T13:16:04;27.20;48.60
36352;DHT22;22382;44.768;17.206;2023-05-07T13:18:32;27.30;48.20
36352;DHT22;22382;44.768;17.206;2023-05-07T13:21:00;27.40;49.40
36352;DHT22;22382;44.768;17.206;2023-05-07T13:23:28;27.60;49.20
36352;DHT22;22382;44.768;17.206;2023-05-07T13:25:55;27.70;47.80
36352;DHT22;22382;44.768;17.206;2023-05-07T13:28:24;27.60;47.90
36352;DHT22;22382;44.768;17.206;2023-05-07T13:30:51;27.40;48.30
36352;DHT22;22382;44.768;17.206;2023-05-07T13:33:19;27.40;47.50
36352;DHT22;22382;44.768;17.206;2023-05-07T13:35:46;27.40;48.10
36352;DHT22;22382;44.768;17.206;2023-05-07T13:38:13;27.40;49.20
36352;DHT22;22382;44.768;17.206;2023-05-07T13:40:43;27.40;49.10
36352;DHT22;22382;44.768;17.206;2023-05-07T13:43:10;27.20;49.60
36352;DHT22;22382;44.768;17.206;2023-05-07T13:45:38;27.20;48.40
36352;DHT22;22382;44.768;17.206;2023-05-07T13:48:05;27.30;48.60
36352;DHT22;22382;44.768;17.206;2023-05-07T13:50:32;27.50;49.30
36352;DHT22;22382;44.768;17.206;2023-05-07T13:52:59;27.70;49.70
36352;DHT22;22382;44.768;17.206;2023-05-07T13:55:28;27.60;49.80
36352;DHT22;22382;44.768;17.206;2023-05-07T13:57:57;27.50;50.40
36352;DHT22;22382;44.768;17.206;2023-05-07T14:00:26;27.50;50.10
36352;DHT22;22382;44.768;17.206;2023-05-07T14:02:54;27.40;49.70
36352;DHT22;22382;44.768;17.206;2023-05-07T14:05:22;27.20;51.10
36352;DHT22;22382;44.768;17.206;2023-05-07T14:07:57;27.40;51.20
36352;DHT22;22382;44.768;17.206;2023-05-07T14:10:25;27.60;50.90
36352;DHT22;22382;44.768;17.206;2023-05-07T14:12:52;27.90;51.30
36352;DHT22;22382;44.768;17.206;2023-05-07T14:15:20;28.10;51.10
36352;DHT22;22382;44.768;17.206;2023-05-07T14:17:47;27.90;51.70
36352;DHT22;22382;44.768;17.206;2023-05-07T14:20:14;27.90;52.60
36352;DHT22;22382;44.768;17.206;2023-05-07T14:22:41;27.80;53.40
36352;DHT22;22382;44.768;17.206;2023-05-07T14:25:10;27.90;52.60
36352;DHT22;22382;44.768;17.206;2023-05-07T14:27:37;28.10;51.80
36352;DHT22;22382;44.768;17.206;2023-05-07T14:30:05;28.00;51.10
36352;DHT22;22382;44.768;17.206;2023-05-07T14:32:33;28.10;51.50
36352;DHT22;22382;44.768;17.206;2023-05-07T14:35:00;28.40;50.80
36352;DHT22;22382;44.768;17.206;2023-05-07T14:37:27;28.30;50.20
36352;DHT22;22382;44.768;17.206;2023-05-07T14:39:56;27.80;50.70
36352;DHT22;22382;44.768;17.206;2023-05-07T14:42:23;27.70;53.00
36352;DHT22;22382;44.768;17.206;2023-05-07T14:44:50;28.10;52.60
36352;DHT22;22382;44.768;17.206;2023-05-07T14:47:17;28.40;51.70
36352;DHT22;22382;44.768;17.206;2023-05-07T14:49:45;28.30;51.50
36352;DHT22;22382;44.768;17.206;2023-05-07T14:52:13;28.10;51.90
36352;DHT22;22382;44.768;17.206;2023-05-07T14:54:41;28.40;51.50
36352;DHT22;22382;44.768;17.206;2023-05-07T14:57:09;28.70;51.10
36352;DHT22;22382;44.768;17.206;2023-05-07T14:59:37;29.10;51.10
36352;DHT22;22382;44.768;17.206;2023-05-07T15:02:06;30.20;49.80
36352;DHT22;22382;44.768;17.206;2023-05-07T15:04:35;30.40;49.80
36352;DHT22;22382;44.768;17.206;2023-05-07T15:07:02;30.80;48.60
36352;DHT22;22382;44.768;17.206;2023-05-07T15:09:30;30.90;48.10
36352;DHT22;22382;44.768;17.206;2023-05-07T15:11:57;30.70;47.50
36352;DHT22;22382;44.768;17.206;2023-05-07T15:14:25;30.80;46.70
36352;DHT22;22382;44.768;17.206;2023-05-07T15:16:52;31.30;46.10
36352;DHT22;22382;44.768;17.206;2023-05-07T15:19:20;30.50;46.80
36352;DHT22;22382;44.768;17.206;2023-05-07T15:21:49;29.50;48.00
36352;DHT22;22382;44.768;17.206;2023-05-07T15:24:16;28.90;49.10
36352;DHT22;22382;44.768;17.206;2023-05-07T15:26:43;28.50;50.00
36352;DHT22;22382;44.768;17.206;2023-05-07T15:29:11;28.30;49.90
36352;DHT22;22382;44.768;17.206;2023-05-07T15:31:38;28.00;51.10
36352;DHT22;22382;44.768;17.206;2023-05-07T15:34:06;27.70;51.40
36352;DHT22;22382;44.768;17.206;2023-05-07T15:36:33;27.80;50.50
36352;DHT22;22382;44.768;17.206;2023-05-07T15:39:00;27.90;50.10